Arcadia, Argentina
Current Conditions -  °F | °C
As of 2:00 PM on Monday 20 Oct 2014 (Local Time) from SANT Reporting Station
Broken Clouds Broken Clouds  
Wind Chill: 77°   Ceiling: 3000
Heat Index: 79°   Visibility: 6mi
Dew Point: 61°   Wind: 5mph
Humidity: 57%   Direction: 50°NE
Pressure: 30.12"   Gusts: NA
Location:  27.3°S, 65.57°W
Report Text: SANT 201700Z 05004KT 9000 BKN030 SCT05025/16 Q1020
Loading
Personal Weather Stations






























Interactive Weather Map
Tropical Storm Tracking
New forecast layout! Learn more

10-Day Weather Forecast

Advertisements
Track Severe Weather on mobile